sensor_id;sensor_type;location;lat;lon;timestamp;P1;durP1;ratioP1;P2;durP2;ratioP2
41219;SDS011;26951;47.338;9.196;2023-06-04T00:00:16;7.15;;;6.18;;
41219;SDS011;26951;47.338;9.196;2023-06-04T00:03:00;7.93;;;5.93;;
41219;SDS011;26951;47.338;9.196;2023-06-04T00:05:44;6.88;;;5.93;;
41219;SDS011;26951;47.338;9.196;2023-06-04T00:08:28;9.93;;;7.47;;
41219;SDS011;26951;47.338;9.196;2023-06-04T00:11:12;8.52;;;6.03;;
41219;SDS011;26951;47.338;9.196;2023-06-04T00:13:57;6.97;;;6.28;;
41219;SDS011;26951;47.338;9.196;2023-06-04T00:16:41;9.00;;;6.55;;
41219;SDS011;26951;47.338;9.196;2023-06-04T00:19:26;9.27;;;7.43;;
41219;SDS011;26951;47.338;9.196;2023-06-04T00:22:10;8.35;;;6.50;;
41219;SDS011;26951;47.338;9.196;2023-06-04T00:24:54;6.90;;;6.20;;
41219;SDS011;26951;47.338;9.196;2023-06-04T00:27:38;8.88;;;6.90;;
41219;SDS011;26951;47.338;9.196;2023-06-04T00:30:22;8.88;;;6.55;;
41219;SDS011;26951;47.338;9.196;2023-06-04T00:33:07;8.13;;;7.25;;
41219;SDS011;26951;47.338;9.196;2023-06-04T00:35:51;9.55;;;7.53;;
41219;SDS011;26951;47.338;9.196;2023-06-04T00:38:35;8.52;;;6.95;;
41219;SDS011;26951;47.338;9.196;2023-06-04T00:41:19;7.82;;;6.75;;
41219;SDS011;26951;47.338;9.196;2023-06-04T00:44:04;8.00;;;6.70;;
41219;SDS011;26951;47.338;9.196;2023-06-04T00:46:49;7.43;;;6.40;;
41219;SDS011;26951;47.338;9.196;2023-06-04T00:49:33;7.70;;;6.68;;
41219;SDS011;26951;47.338;9.196;2023-06-04T00:52:18;7.97;;;6.55;;
41219;SDS011;26951;47.338;9.196;2023-06-04T00:55:02;7.50;;;6.32;;
41219;SDS011;26951;47.338;9.196;2023-06-04T00:57:46;8.43;;;7.40;;
41219;SDS011;26951;47.338;9.196;2023-06-04T01:04:27;8.63;;;6.93;;
41219;SDS011;26951;47.338;9.196;2023-06-04T01:07:16;9.32;;;7.00;;
41219;SDS011;26951;47.338;9.196;2023-06-04T01:10:01;9.45;;;7.05;;
41219;SDS011;26951;47.338;9.196;2023-06-04T01:12:45;8.77;;;6.88;;
41219;SDS011;26951;47.338;9.196;2023-06-04T01:15:29;8.77;;;6.20;;
41219;SDS011;26951;47.338;9.196;2023-06-04T01:18:15;7.95;;;6.70;;
41219;SDS011;26951;47.338;9.196;2023-06-04T01:21:11;7.97;;;6.85;;
41219;SDS011;26951;47.338;9.196;2023-06-04T01:24:01;8.15;;;6.43;;
41219;SDS011;26951;47.338;9.196;2023-06-04T01:26:50;10.32;;;6.60;;
41219;SDS011;26951;47.338;9.196;2023-06-04T01:29:35;9.05;;;7.13;;
41219;SDS011;26951;47.338;9.196;2023-06-04T01:32:20;7.60;;;6.78;;
41219;SDS011;26951;47.338;9.196;2023-06-04T01:35:07;7.13;;;5.90;;
41219;SDS011;26951;47.338;9.196;2023-06-04T01:37:52;7.30;;;6.55;;
41219;SDS011;26951;47.338;9.196;2023-06-04T01:40:38;8.82;;;7.22;;
41219;SDS011;26951;47.338;9.196;2023-06-04T01:43:22;8.30;;;6.40;;
41219;SDS011;26951;47.338;9.196;2023-06-04T01:46:07;7.70;;;6.33;;
41219;SDS011;26951;47.338;9.196;2023-06-04T01:48:51;10.05;;;6.43;;
41219;SDS011;26951;47.338;9.196;2023-06-04T01:51:35;8.15;;;6.13;;
41219;SDS011;26951;47.338;9.196;2023-06-04T01:54:20;8.65;;;6.70;;
41219;SDS011;26951;47.338;9.196;2023-06-04T01:57:05;7.13;;;5.93;;
41219;SDS011;26951;47.338;9.196;2023-06-04T01:59:50;7.37;;;6.13;;
41219;SDS011;26951;47.338;9.196;2023-06-04T02:02:34;7.13;;;6.28;;
41219;SDS011;26951;47.338;9.196;2023-06-04T02:05:22;9.68;;;6.72;;
41219;SDS011;26951;47.338;9.196;2023-06-04T02:08:06;7.55;;;6.70;;
41219;SDS011;26951;47.338;9.196;2023-06-04T02:10:50;8.55;;;6.78;;
41219;SDS011;26951;47.338;9.196;2023-06-04T02:13:35;8.57;;;6.75;;
41219;SDS011;26951;47.338;9.196;2023-06-04T02:16:19;6.95;;;5.97;;
41219;SDS011;26951;47.338;9.196;2023-06-04T02:19:04;8.23;;;7.10;;
41219;SDS011;26951;47.338;9.196;2023-06-04T02:21:48;8.27;;;6.47;;
41219;SDS011;26951;47.338;9.196;2023-06-04T02:24:32;7.53;;;6.40;;
41219;SDS011;26951;47.338;9.196;2023-06-04T02:27:16;7.32;;;6.63;;
41219;SDS011;26951;47.338;9.196;2023-06-04T02:30:01;6.82;;;6.10;;
41219;SDS011;26951;47.338;9.196;2023-06-04T02:32:46;7.72;;;6.65;;
41219;SDS011;26951;47.338;9.196;2023-06-04T02:35:34;8.68;;;6.00;;
41219;SDS011;26951;47.338;9.196;2023-06-04T02:38:18;7.68;;;6.80;;
41219;SDS011;26951;47.338;9.196;2023-06-04T02:41:02;10.07;;;7.75;;
41219;SDS011;26951;47.338;9.196;2023-06-04T02:43:46;7.80;;;6.13;;
41219;SDS011;26951;47.338;9.196;2023-06-04T02:46:30;8.32;;;6.53;;
41219;SDS011;26951;47.338;9.196;2023-06-04T02:49:14;8.20;;;7.18;;
41219;SDS011;26951;47.338;9.196;2023-06-04T02:51:59;9.00;;;6.40;;
41219;SDS011;26951;47.338;9.196;2023-06-04T02:54:43;7.57;;;6.78;;
41219;SDS011;26951;47.338;9.196;2023-06-04T02:57:27;6.78;;;5.93;;
41219;SDS011;26951;47.338;9.196;2023-06-04T03:00:12;10.18;;;7.35;;
41219;SDS011;26951;47.338;9.196;2023-06-04T03:02:58;9.63;;;7.55;;
41219;SDS011;26951;47.338;9.196;2023-06-04T03:05:44;7.53;;;6.35;;
41219;SDS011;26951;47.338;9.196;2023-06-04T03:08:29;8.43;;;6.75;;
41219;SDS011;26951;47.338;9.196;2023-06-04T03:11:14;8.88;;;7.00;;
41219;SDS011;26951;47.338;9.196;2023-06-04T03:13:58;8.85;;;7.00;;
41219;SDS011;26951;47.338;9.196;2023-06-04T03:16:42;8.13;;;6.30;;
41219;SDS011;26951;47.338;9.196;2023-06-04T03:19:29;8.15;;;6.25;;
41219;SDS011;26951;47.338;9.196;2023-06-04T03:22:13;8.35;;;7.05;;
41219;SDS011;26951;47.338;9.196;2023-06-04T03:24:57;8.13;;;6.60;;
41219;SDS011;26951;47.338;9.196;2023-06-04T03:27:41;9.15;;;7.25;;
41219;SDS011;26951;47.338;9.196;2023-06-04T03:30:25;7.05;;;6.32;;
41219;SDS011;26951;47.338;9.196;2023-06-04T03:33:10;10.48;;;6.72;;
41219;SDS011;26951;47.338;9.196;2023-06-04T03:35:54;9.05;;;6.85;;
41219;SDS011;26951;47.338;9.196;2023-06-04T03:38:42;8.73;;;7.05;;
41219;SDS011;26951;47.338;9.196;2023-06-04T03:41:28;8.10;;;6.95;;
41219;SDS011;26951;47.338;9.196;2023-06-04T03:44:13;8.10;;;7.00;;
41219;SDS011;26951;47.338;9.196;2023-06-04T03:46:58;8.05;;;7.25;;
41219;SDS011;26951;47.338;9.196;2023-06-04T03:49:42;7.35;;;6.47;;
41219;SDS011;26951;47.338;9.196;2023-06-04T03:52:27;8.23;;;6.63;;
41219;SDS011;26951;47.338;9.196;2023-06-04T03:55:11;9.30;;;8.07;;
41219;SDS011;26951;47.338;9.196;2023-06-04T03:57:55;8.02;;;6.95;;
41219;SDS011;26951;47.338;9.196;2023-06-04T04:00:39;10.93;;;7.45;;
41219;SDS011;26951;47.338;9.196;2023-06-04T04:03:23;8.45;;;6.95;;
41219;SDS011;26951;47.338;9.196;2023-06-04T04:06:07;8.63;;;6.75;;
41219;SDS011;26951;47.338;9.196;2023-06-04T04:08:54;10.05;;;6.60;;
41219;SDS011;26951;47.338;9.196;2023-06-04T04:11:38;8.30;;;6.60;;
41219;SDS011;26951;47.338;9.196;2023-06-04T04:14:24;7.50;;;6.70;;
41219;SDS011;26951;47.338;9.196;2023-06-04T04:17:08;7.75;;;6.65;;
41219;SDS011;26951;47.338;9.196;2023-06-04T04:19:52;8.40;;;6.65;;
41219;SDS011;26951;47.338;9.196;2023-06-04T04:22:39;11.30;;;7.00;;
41219;SDS011;26951;47.338;9.196;2023-06-04T04:25:25;7.82;;;7.03;;
41219;SDS011;26951;47.338;9.196;2023-06-04T04:28:10;8.35;;;7.40;;
41219;SDS011;26951;47.338;9.196;2023-06-04T04:30:55;7.72;;;6.82;;
41219;SDS011;26951;47.338;9.196;2023-06-04T04:33:50;9.10;;;7.00;;
41219;SDS011;26951;47.338;9.196;2023-06-04T04:36:34;9.00;;;6.73;;
41219;SDS011;26951;47.338;9.196;2023-06-04T04:39:22;7.07;;;6.28;;
41219;SDS011;26951;47.338;9.196;2023-06-04T04:42:06;9.68;;;7.63;;
41219;SDS011;26951;47.338;9.196;2023-06-04T04:44:50;7.78;;;6.05;;
41219;SDS011;26951;47.338;9.196;2023-06-04T04:47:34;7.78;;;6.97;;
41219;SDS011;26951;47.338;9.196;2023-06-04T04:50:18;8.65;;;7.72;;
41219;SDS011;26951;47.338;9.196;2023-06-04T04:53:03;7.70;;;6.78;;
41219;SDS011;26951;47.338;9.196;2023-06-04T04:55:47;11.38;;;8.02;;
41219;SDS011;26951;47.338;9.196;2023-06-04T04:58:31;9.38;;;6.55;;
41219;SDS011;26951;47.338;9.196;2023-06-04T05:01:15;8.40;;;6.97;;
41219;SDS011;26951;47.338;9.196;2023-06-04T05:03:59;10.60;;;7.07;;
41219;SDS011;26951;47.338;9.196;2023-06-04T05:06:43;7.45;;;6.65;;
41219;SDS011;26951;47.338;9.196;2023-06-04T05:09:28;9.45;;;7.05;;
41219;SDS011;26951;47.338;9.196;2023-06-04T05:12:12;7.82;;;6.90;;
41219;SDS011;26951;47.338;9.196;2023-06-04T05:14:56;8.10;;;7.03;;
41219;SDS011;26951;47.338;9.196;2023-06-04T05:17:40;9.02;;;6.93;;
41219;SDS011;26951;47.338;9.196;2023-06-04T05:20:24;7.97;;;7.10;;
41219;SDS011;26951;47.338;9.196;2023-06-04T05:23:09;8.73;;;7.40;;
41219;SDS011;26951;47.338;9.196;2023-06-04T05:25:53;7.05;;;6.35;;
41219;SDS011;26951;47.338;9.196;2023-06-04T05:28:38;7.95;;;7.00;;
41219;SDS011;26951;47.338;9.196;2023-06-04T05:31:27;8.18;;;7.13;;
41219;SDS011;26951;47.338;9.196;2023-06-04T05:34:11;8.93;;;7.65;;
41219;SDS011;26951;47.338;9.196;2023-06-04T05:36:59;7.53;;;6.72;;
41219;SDS011;26951;47.338;9.196;2023-06-04T05:39:43;8.88;;;6.97;;
41219;SDS011;26951;47.338;9.196;2023-06-04T05:42:28;8.07;;;7.28;;
41219;SDS011;26951;47.338;9.196;2023-06-04T05:45:12;13.50;;;7.40;;
41219;SDS011;26951;47.338;9.196;2023-06-04T05:47:56;8.20;;;7.20;;
41219;SDS011;26951;47.338;9.196;2023-06-04T05:50:40;8.57;;;7.68;;
41219;SDS011;26951;47.338;9.196;2023-06-04T05:53:24;7.60;;;6.90;;
41219;SDS011;26951;47.338;9.196;2023-06-04T05:56:09;7.30;;;6.45;;
41219;SDS011;26951;47.338;9.196;2023-06-04T05:58:53;8.37;;;7.30;;
41219;SDS011;26951;47.338;9.196;2023-06-04T06:01:38;7.97;;;7.15;;
41219;SDS011;26951;47.338;9.196;2023-06-04T06:04:22;8.10;;;6.70;;
41219;SDS011;26951;47.338;9.196;2023-06-04T06:07:07;8.45;;;7.18;;
41219;SDS011;26951;47.338;9.196;2023-06-04T06:09:51;7.40;;;6.70;;
41219;SDS011;26951;47.338;9.196;2023-06-04T06:12:36;11.30;;;7.32;;
41219;SDS011;26951;47.338;9.196;2023-06-04T06:15:20;7.10;;;6.13;;
41219;SDS011;26951;47.338;9.196;2023-06-04T06:18:04;7.68;;;6.50;;
41219;SDS011;26951;47.338;9.196;2023-06-04T06:20:48;7.60;;;6.35;;
41219;SDS011;26951;47.338;9.196;2023-06-04T06:23:32;8.90;;;6.57;;
41219;SDS011;26951;47.338;9.196;2023-06-04T06:26:18;7.05;;;5.72;;
41219;SDS011;26951;47.338;9.196;2023-06-04T06:29:02;6.03;;;5.45;;
41219;SDS011;26951;47.338;9.196;2023-06-04T06:31:46;8.40;;;5.93;;
41219;SDS011;26951;47.338;9.196;2023-06-04T06:34:31;6.38;;;5.65;;
41219;SDS011;26951;47.338;9.196;2023-06-04T06:37:15;6.20;;;5.47;;
41219;SDS011;26951;47.338;9.196;2023-06-04T06:39:59;7.82;;;6.70;;
41219;SDS011;26951;47.338;9.196;2023-06-04T06:42:47;6.43;;;5.83;;
41219;SDS011;26951;47.338;9.196;2023-06-04T06:45:33;7.57;;;5.60;;
41219;SDS011;26951;47.338;9.196;2023-06-04T06:48:17;6.18;;;5.57;;
41219;SDS011;26951;47.338;9.196;2023-06-04T06:51:01;7.00;;;6.30;;
41219;SDS011;26951;47.338;9.196;2023-06-04T06:53:45;7.18;;;6.45;;
41219;SDS011;26951;47.338;9.196;2023-06-04T06:56:32;6.75;;;5.80;;
41219;SDS011;26951;47.338;9.196;2023-06-04T06:59:16;8.48;;;6.43;;
41219;SDS011;26951;47.338;9.196;2023-06-04T07:02:00;7.38;;;6.10;;
41219;SDS011;26951;47.338;9.196;2023-06-04T07:04:45;6.72;;;6.03;;
41219;SDS011;26951;47.338;9.196;2023-06-04T07:07:28;7.05;;;5.80;;
41219;SDS011;26951;47.338;9.196;2023-06-04T07:10:13;7.35;;;6.50;;
41219;SDS011;26951;47.338;9.196;2023-06-04T07:12:57;8.13;;;6.93;;
41219;SDS011;26951;47.338;9.196;2023-06-04T07:15:42;7.47;;;6.68;;
41219;SDS011;26951;47.338;9.196;2023-06-04T07:18:26;7.72;;;6.93;;
41219;SDS011;26951;47.338;9.196;2023-06-04T07:21:10;7.63;;;6.78;;
41219;SDS011;26951;47.338;9.196;2023-06-04T07:23:54;8.15;;;6.68;;
41219;SDS011;26951;47.338;9.196;2023-06-04T07:26:40;8.07;;;6.38;;
41219;SDS011;26951;47.338;9.196;2023-06-04T07:29:24;8.45;;;6.10;;
41219;SDS011;26951;47.338;9.196;2023-06-04T07:32:08;9.80;;;6.07;;
41219;SDS011;26951;47.338;9.196;2023-06-04T07:34:52;7.13;;;6.10;;
41219;SDS011;26951;47.338;9.196;2023-06-04T07:37:36;6.70;;;6.10;;
41219;SDS011;26951;47.338;9.196;2023-06-04T07:40:20;7.15;;;6.13;;
41219;SDS011;26951;47.338;9.196;2023-06-04T07:43:05;7.43;;;6.68;;
41219;SDS011;26951;47.338;9.196;2023-06-04T07:45:49;7.88;;;6.80;;
41219;SDS011;26951;47.338;9.196;2023-06-04T07:48:33;7.03;;;6.32;;
41219;SDS011;26951;47.338;9.196;2023-06-04T07:51:17;9.05;;;6.78;;
41219;SDS011;26951;47.338;9.196;2023-06-04T07:54:03;8.07;;;7.28;;
41219;SDS011;26951;47.338;9.196;2023-06-04T07:56:47;8.77;;;7.20;;
41219;SDS011;26951;47.338;9.196;2023-06-04T07:59:31;8.35;;;6.88;;
41219;SDS011;26951;47.338;9.196;2023-06-04T08:02:15;7.07;;;5.55;;
41219;SDS011;26951;47.338;9.196;2023-06-04T08:05:00;6.40;;;5.57;;
41219;SDS011;26951;47.338;9.196;2023-06-04T08:07:46;5.88;;;5.22;;
41219;SDS011;26951;47.338;9.196;2023-06-04T08:10:31;7.07;;;5.25;;
41219;SDS011;26951;47.338;9.196;2023-06-04T08:13:15;7.30;;;5.60;;
41219;SDS011;26951;47.338;9.196;2023-06-04T08:15:59;6.22;;;5.20;;
41219;SDS011;26951;47.338;9.196;2023-06-04T08:18:43;5.43;;;4.68;;
41219;SDS011;26951;47.338;9.196;2023-06-04T08:21:27;6.07;;;5.53;;
41219;SDS011;26951;47.338;9.196;2023-06-04T08:26:56;6.65;;;5.05;;
41219;SDS011;26951;47.338;9.196;2023-06-04T08:29:40;7.18;;;5.97;;
41219;SDS011;26951;47.338;9.196;2023-06-04T08:32:24;7.43;;;5.93;;
41219;SDS011;26951;47.338;9.196;2023-06-04T08:35:08;5.70;;;5.10;;
41219;SDS011;26951;47.338;9.196;2023-06-04T08:37:53;6.25;;;5.65;;
41219;SDS011;26951;47.338;9.196;2023-06-04T08:40:37;6.33;;;5.73;;
41219;SDS011;26951;47.338;9.196;2023-06-04T08:43:21;7.60;;;5.70;;
41219;SDS011;26951;47.338;9.196;2023-06-04T08:46:05;7.23;;;6.37;;
41219;SDS011;26951;47.338;9.196;2023-06-04T08:48:52;7.65;;;5.82;;
41219;SDS011;26951;47.338;9.196;2023-06-04T08:51:39;6.68;;;5.93;;
41219;SDS011;26951;47.338;9.196;2023-06-04T08:54:24;6.72;;;6.13;;
41219;SDS011;26951;47.338;9.196;2023-06-04T08:59:53;8.57;;;6.55;;
41219;SDS011;26951;47.338;9.196;2023-06-04T09:02:37;7.43;;;6.47;;
41219;SDS011;26951;47.338;9.196;2023-06-04T09:05:22;6.63;;;6.03;;
41219;SDS011;26951;47.338;9.196;2023-06-04T09:08:06;7.20;;;6.50;;
41219;SDS011;26951;47.338;9.196;2023-06-04T09:10:54;6.47;;;5.93;;
41219;SDS011;26951;47.338;9.196;2023-06-04T09:13:38;7.72;;;6.60;;
41219;SDS011;26951;47.338;9.196;2023-06-04T09:16:24;7.20;;;6.40;;
41219;SDS011;26951;47.338;9.196;2023-06-04T09:19:08;7.72;;;7.03;;
41219;SDS011;26951;47.338;9.196;2023-06-04T09:24:41;9.38;;;6.82;;
41219;SDS011;26951;47.338;9.196;2023-06-04T09:27:26;8.65;;;6.22;;
41219;SDS011;26951;47.338;9.196;2023-06-04T09:30:12;7.43;;;5.95;;
41219;SDS011;26951;47.338;9.196;2023-06-04T09:33:05;6.90;;;5.77;;
41219;SDS011;26951;47.338;9.196;2023-06-04T09:35:57;8.98;;;7.78;;
41219;SDS011;26951;47.338;9.196;2023-06-04T09:38:42;7.45;;;5.80;;
41219;SDS011;26951;47.338;9.196;2023-06-04T09:41:26;7.25;;;6.55;;
41219;SDS011;26951;47.338;9.196;2023-06-04T09:44:10;7.60;;;6.78;;
41219;SDS011;26951;47.338;9.196;2023-06-04T09:49:43;8.32;;;5.53;;
41219;SDS011;26951;47.338;9.196;2023-06-04T09:52:34;7.55;;;5.90;;
41219;SDS011;26951;47.338;9.196;2023-06-04T09:55:19;6.10;;;4.82;;
41219;SDS011;26951;47.338;9.196;2023-06-04T09:58:05;5.95;;;5.22;;
41219;SDS011;26951;47.338;9.196;2023-06-04T10:00:50;8.02;;;6.28;;
41219;SDS011;26951;47.338;9.196;2023-06-04T10:03:37;6.20;;;5.57;;
41219;SDS011;26951;47.338;9.196;2023-06-04T10:06:26;6.43;;;5.03;;
41219;SDS011;26951;47.338;9.196;2023-06-04T10:09:11;5.72;;;4.90;;
41219;SDS011;26951;47.338;9.196;2023-06-04T10:11:58;5.18;;;4.60;;
41219;SDS011;26951;47.338;9.196;2023-06-04T10:14:47;7.10;;;4.80;;
41219;SDS011;26951;47.338;9.196;2023-06-04T10:17:36;8.35;;;5.50;;
41219;SDS011;26951;47.338;9.196;2023-06-04T10:20:22;5.18;;;4.35;;
41219;SDS011;26951;47.338;9.196;2023-06-04T10:23:07;5.57;;;5.00;;
41219;SDS011;26951;47.338;9.196;2023-06-04T10:25:51;5.72;;;4.95;;
41219;SDS011;26951;47.338;9.196;2023-06-04T10:28:37;5.03;;;4.53;;
41219;SDS011;26951;47.338;9.196;2023-06-04T10:31:22;5.18;;;4.70;;
41219;SDS011;26951;47.338;9.196;2023-06-04T10:34:06;5.10;;;4.57;;
41219;SDS011;26951;47.338;9.196;2023-06-04T10:36:50;5.18;;;4.38;;
41219;SDS011;26951;47.338;9.196;2023-06-04T10:42:20;5.47;;;4.75;;
41219;SDS011;26951;47.338;9.196;2023-06-04T10:45:05;6.03;;;5.13;;
41219;SDS011;26951;47.338;9.196;2023-06-04T10:47:59;5.22;;;4.72;;
41219;SDS011;26951;47.338;9.196;2023-06-04T10:50:48;6.25;;;5.07;;
41219;SDS011;26951;47.338;9.196;2023-06-04T10:53:36;5.75;;;5.00;;
41219;SDS011;26951;47.338;9.196;2023-06-04T10:56:41;7.95;;;4.88;;
41219;SDS011;26951;47.338;9.196;2023-06-04T10:59:24;5.38;;;4.80;;
41219;SDS011;26951;47.338;9.196;2023-06-04T11:02:09;6.37;;;5.10;;
41219;SDS011;26951;47.338;9.196;2023-06-04T11:05:00;5.18;;;4.53;;
41219;SDS011;26951;47.338;9.196;2023-06-04T11:07:53;5.35;;;4.70;;
41219;SDS011;26951;47.338;9.196;2023-06-04T11:10:38;5.88;;;4.72;;
41219;SDS011;26951;47.338;9.196;2023-06-04T11:13:26;4.80;;;4.32;;
41219;SDS011;26951;47.338;9.196;2023-06-04T11:16:14;6.68;;;4.80;;
41219;SDS011;26951;47.338;9.196;2023-06-04T11:19:02;5.05;;;4.55;;
41219;SDS011;26951;47.338;9.196;2023-06-04T11:21:47;5.90;;;4.38;;
41219;SDS011;26951;47.338;9.196;2023-06-04T11:24:32;5.50;;;4.70;;
41219;SDS011;26951;47.338;9.196;2023-06-04T11:27:16;7.30;;;5.93;;
41219;SDS011;26951;47.338;9.196;2023-06-04T11:30:01;5.43;;;4.50;;
41219;SDS011;26951;47.338;9.196;2023-06-04T11:32:46;5.93;;;5.07;;
41219;SDS011;26951;47.338;9.196;2023-06-04T11:35:31;7.25;;;4.55;;
41219;SDS011;26951;47.338;9.196;2023-06-04T11:38:24;4.63;;;4.22;;
41219;SDS011;26951;47.338;9.196;2023-06-04T11:41:08;5.25;;;4.40;;
41219;SDS011;26951;47.338;9.196;2023-06-04T11:43:53;5.88;;;4.97;;
41219;SDS011;26951;47.338;9.196;2023-06-04T11:46:40;5.22;;;4.57;;
41219;SDS011;26951;47.338;9.196;2023-06-04T11:49:27;6.90;;;4.78;;
41219;SDS011;26951;47.338;9.196;2023-06-04T11:52:11;5.85;;;5.25;;
41219;SDS011;26951;47.338;9.196;2023-06-04T11:57:41;5.43;;;4.38;;
41219;SDS011;26951;47.338;9.196;2023-06-04T12:00:25;5.00;;;4.50;;
41219;SDS011;26951;47.338;9.196;2023-06-04T12:03:10;4.90;;;4.43;;
41219;SDS011;26951;47.338;9.196;2023-06-04T12:05:54;5.82;;;5.10;;
41219;SDS011;26951;47.338;9.196;2023-06-04T12:08:48;5.40;;;4.43;;
41219;SDS011;26951;47.338;9.196;2023-06-04T12:11:34;7.40;;;4.78;;
41219;SDS011;26951;47.338;9.196;2023-06-04T12:14:18;6.00;;;4.63;;
41219;SDS011;26951;47.338;9.196;2023-06-04T12:17:08;8.77;;;4.93;;
41219;SDS011;26951;47.338;9.196;2023-06-04T12:19:53;5.15;;;4.45;;
41219;SDS011;26951;47.338;9.196;2023-06-04T12:22:46;5.82;;;4.65;;
41219;SDS011;26951;47.338;9.196;2023-06-04T12:25:31;4.90;;;4.32;;
41219;SDS011;26951;47.338;9.196;2023-06-04T12:31:01;5.25;;;4.72;;
41219;SDS011;26951;47.338;9.196;2023-06-04T12:33:45;6.90;;;4.33;;
41219;SDS011;26951;47.338;9.196;2023-06-04T12:36:29;4.78;;;4.28;;
41219;SDS011;26951;47.338;9.196;2023-06-04T12:39:13;7.00;;;4.67;;
41219;SDS011;26951;47.338;9.196;2023-06-04T12:41:57;5.53;;;4.53;;
41219;SDS011;26951;47.338;9.196;2023-06-04T12:44:41;6.40;;;4.68;;
41219;SDS011;26951;47.338;9.196;2023-06-04T12:47:25;5.40;;;4.35;;
41219;SDS011;26951;47.338;9.196;2023-06-04T12:50:10;4.97;;;4.43;;
41219;SDS011;26951;47.338;9.196;2023-06-04T12:52:54;5.60;;;4.10;;
41219;SDS011;26951;47.338;9.196;2023-06-04T12:55:38;4.63;;;4.15;;
41219;SDS011;26951;47.338;9.196;2023-06-04T12:58:22;5.17;;;4.50;;
41219;SDS011;26951;47.338;9.196;2023-06-04T13:01:06;4.85;;;4.20;;
41219;SDS011;26951;47.338;9.196;2023-06-04T13:03:51;6.28;;;4.28;;
41219;SDS011;26951;47.338;9.196;2023-06-04T13:06:35;5.40;;;4.90;;
41219;SDS011;26951;47.338;9.196;2023-06-04T13:12:06;6.28;;;4.93;;
41219;SDS011;26951;47.338;9.196;2023-06-04T13:14:52;5.30;;;4.80;;
41219;SDS011;26951;47.338;9.196;2023-06-04T13:17:36;5.53;;;4.60;;
41219;SDS011;26951;47.338;9.196;2023-06-04T13:20:21;5.23;;;4.20;;
41219;SDS011;26951;47.338;9.196;2023-06-04T13:23:05;6.68;;;4.88;;
41219;SDS011;26951;47.338;9.196;2023-06-04T13:28:34;5.68;;;4.50;;
41219;SDS011;26951;47.338;9.196;2023-06-04T13:31:19;4.65;;;4.18;;
41219;SDS011;26951;47.338;9.196;2023-06-04T13:34:03;4.85;;;4.28;;
41219;SDS011;26951;47.338;9.196;2023-06-04T13:36:48;4.47;;;4.03;;
41219;SDS011;26951;47.338;9.196;2023-06-04T13:39:32;5.32;;;4.70;;
41219;SDS011;26951;47.338;9.196;2023-06-04T13:42:16;7.35;;;5.05;;
41219;SDS011;26951;47.338;9.196;2023-06-04T13:45:00;5.33;;;4.43;;
41219;SDS011;26951;47.338;9.196;2023-06-04T13:47:44;5.53;;;4.47;;
41219;SDS011;26951;47.338;9.196;2023-06-04T13:50:28;5.60;;;4.77;;
41219;SDS011;26951;47.338;9.196;2023-06-04T13:53:12;7.93;;;4.60;;
41219;SDS011;26951;47.338;9.196;2023-06-04T13:55:57;5.27;;;4.57;;
41219;SDS011;26951;47.338;9.196;2023-06-04T13:58:41;5.38;;;4.78;;
41219;SDS011;26951;47.338;9.196;2023-06-04T14:01:25;4.93;;;4.43;;
41219;SDS011;26951;47.338;9.196;2023-06-04T14:04:09;6.10;;;5.13;;
41219;SDS011;26951;47.338;9.196;2023-06-04T14:06:55;6.53;;;5.13;;
41219;SDS011;26951;47.338;9.196;2023-06-04T14:09:40;7.25;;;4.90;;
41219;SDS011;26951;47.338;9.196;2023-06-04T14:12:24;6.00;;;5.30;;
41219;SDS011;26951;47.338;9.196;2023-06-04T14:15:09;6.38;;;4.85;;
41219;SDS011;26951;47.338;9.196;2023-06-04T14:17:55;6.88;;;5.10;;
41219;SDS011;26951;47.338;9.196;2023-06-04T14:20:39;8.23;;;4.70;;
41219;SDS011;26951;47.338;9.196;2023-06-04T14:23:23;6.23;;;5.10;;
41219;SDS011;26951;47.338;9.196;2023-06-04T14:26:07;6.88;;;4.93;;
41219;SDS011;26951;47.338;9.196;2023-06-04T14:28:51;5.35;;;4.85;;
41219;SDS011;26951;47.338;9.196;2023-06-04T14:31:36;8.47;;;4.60;;
41219;SDS011;26951;47.338;9.196;2023-06-04T14:34:20;5.53;;;4.43;;
41219;SDS011;26951;47.338;9.196;2023-06-04T14:37:04;5.43;;;4.93;;
41219;SDS011;26951;47.338;9.196;2023-06-04T14:39:48;5.93;;;4.65;;
41219;SDS011;26951;47.338;9.196;2023-06-04T14:42:32;5.17;;;4.40;;
41219;SDS011;26951;47.338;9.196;2023-06-04T14:45:16;6.18;;;4.85;;
41219;SDS011;26951;47.338;9.196;2023-06-04T14:48:00;5.20;;;4.68;;
41219;SDS011;26951;47.338;9.196;2023-06-04T14:50:44;6.53;;;4.88;;
41219;SDS011;26951;47.338;9.196;2023-06-04T14:53:30;6.05;;;5.38;;
41219;SDS011;26951;47.338;9.196;2023-06-04T14:56:16;6.55;;;4.60;;
41219;SDS011;26951;47.338;9.196;2023-06-04T14:59:01;5.95;;;4.78;;
41219;SDS011;26951;47.338;9.196;2023-06-04T15:01:48;4.93;;;4.40;;
41219;SDS011;26951;47.338;9.196;2023-06-04T15:04:33;5.57;;;4.60;;
41219;SDS011;26951;47.338;9.196;2023-06-04T15:07:17;7.35;;;4.88;;
41219;SDS011;26951;47.338;9.196;2023-06-04T15:10:02;6.13;;;5.13;;
41219;SDS011;26951;47.338;9.196;2023-06-04T15:12:47;5.32;;;4.82;;
41219;SDS011;26951;47.338;9.196;2023-06-04T15:15:31;5.90;;;4.65;;
41219;SDS011;26951;47.338;9.196;2023-06-04T15:18:15;5.10;;;4.60;;
41219;SDS011;26951;47.338;9.196;2023-06-04T15:20:59;5.63;;;5.03;;
41219;SDS011;26951;47.338;9.196;2023-06-04T15:23:44;5.67;;;5.17;;
41219;SDS011;26951;47.338;9.196;2023-06-04T15:26:32;6.78;;;4.93;;
41219;SDS011;26951;47.338;9.196;2023-06-04T15:29:16;5.43;;;4.93;;
41219;SDS011;26951;47.338;9.196;2023-06-04T15:32:00;6.53;;;4.82;;
41219;SDS011;26951;47.338;9.196;2023-06-04T15:34:44;5.18;;;4.60;;
41219;SDS011;26951;47.338;9.196;2023-06-04T15:37:29;5.20;;;4.68;;
41219;SDS011;26951;47.338;9.196;2023-06-04T15:40:13;10.93;;;5.57;;
41219;SDS011;26951;47.338;9.196;2023-06-04T15:42:57;6.80;;;4.68;;
41219;SDS011;26951;47.338;9.196;2023-06-04T15:45:41;6.20;;;4.25;;
41219;SDS011;26951;47.338;9.196;2023-06-04T15:48:25;4.78;;;4.38;;
41219;SDS011;26951;47.338;9.196;2023-06-04T15:51:11;6.10;;;5.10;;
41219;SDS011;26951;47.338;9.196;2023-06-04T15:53:55;5.60;;;4.80;;
41219;SDS011;26951;47.338;9.196;2023-06-04T15:56:39;6.18;;;4.35;;
41219;SDS011;26951;47.338;9.196;2023-06-04T15:59:23;6.22;;;4.47;;
41219;SDS011;26951;47.338;9.196;2023-06-04T16:02:08;5.80;;;4.70;;
41219;SDS011;26951;47.338;9.196;2023-06-04T16:04:52;5.43;;;4.50;;
41219;SDS011;26951;47.338;9.196;2023-06-04T16:07:36;5.28;;;4.50;;
41219;SDS011;26951;47.338;9.196;2023-06-04T16:10:20;5.53;;;4.93;;
41219;SDS011;26951;47.338;9.196;2023-06-04T16:13:05;5.17;;;4.67;;
41219;SDS011;26951;47.338;9.196;2023-06-04T16:15:49;6.53;;;4.70;;
41219;SDS011;26951;47.338;9.196;2023-06-04T16:18:34;4.97;;;4.30;;
41219;SDS011;26951;47.338;9.196;2023-06-04T16:21:18;7.70;;;5.00;;
41219;SDS011;26951;47.338;9.196;2023-06-04T16:24:04;5.90;;;4.45;;
41219;SDS011;26951;47.338;9.196;2023-06-04T16:26:48;5.50;;;4.85;;
41219;SDS011;26951;47.338;9.196;2023-06-04T16:29:32;5.05;;;4.40;;
41219;SDS011;26951;47.338;9.196;2023-06-04T16:32:17;6.30;;;4.30;;
41219;SDS011;26951;47.338;9.196;2023-06-04T16:35:01;5.20;;;4.70;;
41219;SDS011;26951;47.338;9.196;2023-06-04T16:37:47;5.25;;;4.40;;
41219;SDS011;26951;47.338;9.196;2023-06-04T16:40:32;4.97;;;4.47;;
41219;SDS011;26951;47.338;9.196;2023-06-04T16:43:16;5.07;;;4.50;;
41219;SDS011;26951;47.338;9.196;2023-06-04T16:46:00;5.97;;;5.10;;
41219;SDS011;26951;47.338;9.196;2023-06-04T16:48:44;6.40;;;5.03;;
41219;SDS011;26951;47.338;9.196;2023-06-04T16:51:28;6.35;;;4.80;;
41219;SDS011;26951;47.338;9.196;2023-06-04T16:54:13;5.40;;;4.67;;
41219;SDS011;26951;47.338;9.196;2023-06-04T16:56:57;4.93;;;4.20;;
41219;SDS011;26951;47.338;9.196;2023-06-04T16:59:45;5.00;;;4.50;;
41219;SDS011;26951;47.338;9.196;2023-06-04T17:02:30;7.05;;;5.63;;